KDUG/DUG METAR and TAF weather

Enter ICAO airport designator
Station Type Date Time Source
KDUG METAR 2018/10/22 15:56 UTC NOAA

KDUG 221556Z AUTO 28003KT 10SM FEW050 FEW060 16/13 A3012 RMK AO2 SLP153 T01560133


Station Type Date Time Source
KDUG Decoded METAR 2018/10/22 15:56 UTC NOAA

BISBEE DOUGLAS INTERNATIONAL AIRPORT , AZ, United States (KDUG) 31-28N 109-36W
Oct 22, 2018 - 11:56 AM EDT / 2018.10.22 1556 UTC
Wind: from the W (280 degrees) at 3 MPH (3 KT):0
Visibility: 10 mile(s):0
Sky conditions: mostly clear
Temperature: 60.1 F (15.6 C)
Dew Point: 55.9 F (13.3 C)
Relative Humidity: 86%
Pressure (altimeter): 30.12 in. Hg (1019 hPa)
ob: KDUG 221556Z AUTO 28003KT 10SM FEW050 FEW060 16/13 A3012 RMK AO2 SLP153 T01560133
cycle: 16

Station Type Date Time Source
KDUG TAF 2018/10/22 12:22 UTC NOAA

TAF KDUG 221120Z 2212/2312 07006KT P6SM SCT080 BKN250
FM221900 15008KT P6SM VCSH BKN070 BKN120
FM230200 07006KT P6SM SCT070 BKN150


Example: see airport list